This is the latest recevied weather packets stored in our database for station/object IW4EMA-3. If no packets are shown the sender has not sent any weather packets the latest 10 day(s).
| Time | Temp. | Humidity | Pressure | Rain* | Wind** | Luminosity | Snow |
|---|---|---|---|---|---|---|---|
| 1777979005 | 15.56° C | 91% | 1013 hPa | 0 mm | - | 183 W/m² | - |
| 1777978398 | 15.56° C | 91% | 1013.4 hPa | 0 mm | - | 230 W/m² | - |
| 1777975405 | 15.56° C | 93% | 1013.2 hPa | 0 mm | - | 156 W/m² | - |
| 1777973598 | 15.56° C | 92% | 1013.8 hPa | 0 mm | - | 120 W/m² | - |
| 1777973006 | 16.11° C | 91% | 1013.9 hPa | 0 mm | - | 97 W/m² | - |
| 1777970737 | 16.11° C | 90% | 1013.6 hPa | 0 mm | - | 56 W/m² | - |
| 1777966830 | 14.44° C | 90% | 1013.7 hPa | 0 mm | - | 64 W/m² | - |
| 1777966222 | 14.44° C | 89% | 1013.5 hPa | 0 mm | - | 42 W/m² | - |
| 1777962623 | 16.11° C | 79% | 1013.3 hPa | 0 mm | - | 41 W/m² | - |
| 1777960278 | 15.56° C | 78% | 1013.1 hPa | 0 mm | - | 38 W/m² | - |
| 1777958433 | 15.56° C | 76% | 1012.7 hPa | 0 mm | - | 23 W/m² | - |
| 1777956622 | 16.11° C | 78% | 1012.6 hPa | 0 mm | - | 11 W/m² | - |
| 1777954222 | 16.67° C | 71% | 1012.8 hPa | 0 mm | - | 1 W/m² | - |
| 1777927951 | 17.22° C | 72% | 1015.4 hPa | 0 mm | - | 0 W/m² | - |
| 1777925550 | 18.33° C | 67% | 1015.2 hPa | 0 mm | - | 0 W/m² | - |
| 1777924942 | 18.89° C | 64% | 1015.2 hPa | 0 mm | - | 0 W/m² | - |
| 1777920750 | 20.56° C | 56% | 1014.8 hPa | 0 mm | - | 0 W/m² | - |
| 1777918942 | 21.11° C | 53% | 1014.8 hPa | 0 mm | - | 3 W/m² | - |
| 1777908751 | 25.56° C | 34% | 1014.8 hPa | 0 mm | - | 77 W/m² | - |
| 1777907551 | 26.67° C | 33% | 1015 hPa | 0 mm | - | 289 W/m² | - |
| 1777905151 | 26.11° C | 33% | 1014.9 hPa | 0 mm | - | 405 W/m² | - |
| 1777900943 | 25.56° C | 35% | 1015.8 hPa | 0 mm | - | 450 W/m² | - |
| 1777899743 | 25.56° C | 36% | 1015.9 hPa | 0 mm | - | 211 W/m² | - |
| 1777888371 | 25.56° C | 36% | 1017.3 hPa | 0 mm | - | 643 W/m² | - |
| 1777885951 | 24.44° C | 38% | 1017.4 hPa | 0 mm | - | 576 W/m² | - |
* Rain latest 24 hours (hover to see other rain measurements)
** Current wind speed in m/s (hover to see current wind gust speed)